Time;durP1;ratioP1;P1;durP2;ratioP2;P2;SDS_P1;SDS_P2;PMS_P1;PMS_P2;Temp;Humidity;BMP_temperature;BMP_pressure;BME280_temperature;BME280_humidity;BME280_pressure;Samples;Min_cycle;Max_cycle;Signal;HPM_P1;HPM_P2
2023/11/09 00:00:51;;;;;;;33.60;18.85;;;;;;;;;;5114494;28;20391;-70
2023/11/09 00:03:55;;;;;;;34.75;19.38;;;;;;;;;;5114438;28;20046;-70
2023/11/09 00:06:59;;;;;;;31.08;18.90;;;;;;;;;;5114336;28;20035;-70
2023/11/09 00:10:05;;;;;;;35.03;19.15;;;;;;;;;;5114125;28;20415;-70
2023/11/09 00:13:10;;;;;;;26.38;18.10;;;;;;;;;;5114600;28;20065;-70
2023/11/09 00:16:14;;;;;;;33.35;18.85;;;;;;;;;;5113912;28;20399;-70
2023/11/09 00:19:18;;;;;;;26.40;17.17;;;;;;;;;;5114489;28;20046;-70
2023/11/09 00:22:23;;;;;;;31.35;18.58;;;;;;;;;;5114270;28;20050;-70
2023/11/09 00:25:28;;;;;;;32.53;17.60;;;;;;;;;;5113242;28;20051;-70
2023/11/09 00:28:32;;;;;;;30.58;17.60;;;;;;;;;;5113913;28;20039;-70
2023/11/09 00:31:37;;;;;;;30.38;16.85;;;;;;;;;;5112070;28;20063;-70
2023/11/09 00:34:41;;;;;;;29.38;17.42;;;;;;;;;;5113028;28;20047;-70
2023/11/09 00:37:46;;;;;;;28.20;16.85;;;;;;;;;;5113819;28;20054;-71
2023/11/09 00:40:51;;;;;;;24.83;17.30;;;;;;;;;;5112910;28;20047;-71
2023/11/09 00:43:55;;;;;;;31.38;18.63;;;;;;;;;;5113919;28;20054;-70
2023/11/09 00:47:00;;;;;;;31.60;16.83;;;;;;;;;;5112906;28;20054;-69
2023/11/09 00:50:07;;;;;;;30.13;17.08;;;11.80;99.90;;;;;;5113555;28;20644;-70
2023/11/09 00:53:11;;;;;;;28.50;16.67;;;;;;;;;;5114204;28;20039;-70
2023/11/09 00:56:16;;;;;;;28.08;16.30;;;;;;;;;;5113550;28;20050;-71
2023/11/09 00:59:20;;;;;;;29.35;18.08;;;;;;;;;;5114777;28;20038;-70
2023/11/09 01:02:24;;;;;;;28.08;17.38;;;;;;;;;;5113670;28;20042;-70
2023/11/09 01:05:28;;;;;;;28.02;15.43;;;;;;;;;;5113628;28;20042;-71
2023/11/09 01:08:32;;;;;;;25.80;16.00;;;;;;;;;;5113287;28;20038;-71
2023/11/09 01:11:37;;;;;;;24.77;16.67;;;11.50;99.90;;;;;;5113666;28;20049;-70
2023/11/09 01:14:43;;;;;;;26.60;15.50;;;;;;;;;;5112969;28;20046;-71
2023/11/09 01:18:04;;;;;;;20.52;14.85;;;11.50;99.90;;;;;;5113186;28;20054;-70
2023/11/09 01:21:09;;;;;;;26.88;13.43;;;11.50;99.90;;;;;;5112818;28;20042;-71
2023/11/09 01:24:14;;;;;;;24.45;12.70;;;;;;;;;;5112893;28;20035;-71
2023/11/09 01:27:18;;;;;;;22.55;12.75;;;;;;;;;;5112786;28;20047;-71
2023/11/09 01:30:22;;;;;;;21.67;12.35;;;;;;;;;;5111936;28;20391;-70
2023/11/09 01:33:28;;;;;;;23.83;12.35;;;;;;;;;;5113056;28;20051;-71
2023/11/09 01:36:32;;;;;;;20.80;12.35;;;;;;;;;;5112680;28;20055;-71
2023/11/09 01:39:39;;;;;;;20.63;12.32;;;12.00;99.90;;;;;;5112492;28;20046;-70
2023/11/09 01:42:44;;;;;;;27.30;12.77;;;;;;;;;;5111846;28;20043;-70
2023/11/09 01:45:51;;;;;;;19.90;12.55;;;11.70;99.90;;;;;;5112677;28;20046;-70
2023/11/09 01:48:56;;;;;;;22.85;12.77;;;11.40;99.90;;;;;;5112295;28;20069;-71
2023/11/09 01:52:00;;;;;;;27.15;14.32;;;;;;;;;;5111533;28;20054;-71
2023/11/09 01:55:05;;;;;;;17.38;12.20;;;;;;;;;;5112509;28;20067;-71
2023/11/09 01:58:10;;;;;;;23.23;12.48;;;;;;;;;;5111317;28;20054;-71
2023/11/09 02:01:14;;;;;;;21.67;12.65;;;;;;;;;;5111516;28;20039;-70
2023/11/09 02:04:19;;;;;;;27.48;12.82;;;;;;;;;;5111218;28;20062;-70
2023/11/09 02:07:23;;;;;;;23.52;13.43;;;;;;;;;;5111347;28;20038;-71
2023/11/09 02:10:29;;;;;;;23.27;14.02;;;11.20;99.90;;;;;;5112272;28;20046;-70
2023/11/09 02:13:34;;;;;;;24.08;12.68;;;;;;;;;;5111499;28;20490;-70
2023/11/09 02:16:39;;;;;;;21.65;12.52;;;;;;;;;;5112100;28;20051;-69
2023/11/09 02:19:45;;;;;;;15.93;12.07;;;;;;;;;;5110979;28;20047;-69
2023/11/09 02:22:53;;;;;;;22.90;13.18;;;10.90;99.90;;;;;;5110947;28;20039;-70
2023/11/09 02:25:58;;;;;;;19.38;11.93;;;;;;;;;;5111202;28;20125;-70
2023/11/09 02:29:02;;;;;;;23.77;11.98;;;;;;;;;;5099475;28;20046;-70
2023/11/09 02:32:06;;;;;;;19.63;11.65;;;;;;;;;;5110633;28;20042;-69
2023/11/09 02:35:10;;;;;;;18.08;11.23;;;;;;;;;;5110786;28;20046;-69
2023/11/09 02:38:14;;;;;;;22.00;11.10;;;;;;;;;;5111685;28;20058;-69
2023/11/09 02:41:19;;;;;;;17.27;10.52;;;;;;;;;;5111462;28;20038;-69
2023/11/09 02:44:23;;;;;;;19.50;10.68;;;;;;;;;;5111744;28;20046;-70
2023/11/09 02:47:28;;;;;;;17.42;10.27;;;;;;;;;;5111703;28;20046;-69
2023/11/09 02:50:32;;;;;;;22.48;10.77;;;;;;;;;;5110765;28;20047;-69
2023/11/09 02:53:37;;;;;;;22.95;11.55;;;;;;;;;;5111487;28;20046;-70
2023/11/09 02:56:42;;;;;;;15.73;10.15;;;;;;;;;;5110529;28;20526;-69
2023/11/09 02:59:46;;;;;;;17.77;10.27;;;;;;;;;;5111469;28;20046;-70
2023/11/09 03:02:50;;;;;;;15.52;10.15;;;;;;;;;;5111150;28;20055;-69
2023/11/09 03:05:57;;;;;;;14.95;9.73;;;;;;;;;;5111372;28;20038;-69
2023/11/09 03:09:02;;;;;;;18.42;11.45;;;;;;;;;;5111086;28;20046;-70
2023/11/09 03:12:07;;;;;;;16.33;9.90;;;;;;;;;;5110645;28;20502;-70
2023/11/09 03:15:11;;;;;;;16.95;10.65;;;;;;;;;;5111486;28;20042;-69
2023/11/09 03:18:16;;;;;;;17.80;10.25;;;;;;;;;;5111124;28;20566;-69
2023/11/09 03:21:20;;;;;;;16.05;9.43;;;;;;;;;;5111436;28;20039;-70
2023/11/09 03:24:24;;;;;;;18.10;9.52;;;;;;;;;;5110786;28;20042;-69
2023/11/09 03:27:28;;;;;;;12.95;9.73;;;;;;;;;;5111355;28;20043;-70
2023/11/09 03:30:35;;;;;;;16.75;9.70;;;;;;;;;;5110995;28;20059;-70
2023/11/09 03:33:39;;;;;;;17.25;9.88;;;;;;;;;;5111331;28;20039;-70
2023/11/09 03:36:43;;;;;;;14.23;10.20;;;;;;;;;;5111076;28;20062;-70
2023/11/09 03:39:48;;;;;;;15.55;9.95;;;;;;;;;;5111196;28;20047;-69
2023/11/09 03:42:53;;;;;;;13.13;9.18;;;;;;;;;;5111036;28;20042;-69
2023/11/09 03:45:59;;;;;;;18.55;9.45;;;;;;;;;;5109891;28;20508;-69
2023/11/09 03:49:03;;;;;;;20.95;9.77;;;;;;;;;;5111089;28;20502;-69
2023/11/09 03:52:09;;;;;;;13.80;9.02;;;10.60;99.90;;;;;;5111128;28;20047;-69
2023/11/09 03:55:13;;;;;;;11.73;8.85;;;;;;;;;;5111039;28;20046;-69
2023/11/09 03:58:17;;;;;;;13.13;8.95;;;;;;;;;;5110746;28;20050;-69
2023/11/09 04:01:22;;;;;;;14.60;8.65;;;;;;;;;;5110753;28;20042;-69
2023/11/09 04:04:27;;;;;;;14.00;8.20;;;;;;;;;;5110730;28;20046;-69
2023/11/09 04:07:31;;;;;;;12.40;9.23;;;;;;;;;;5114266;28;20062;-69
2023/11/09 04:10:35;;;;;;;13.75;8.27;;;;;;;;;;5114311;28;20039;-70
2023/11/09 04:13:39;;;;;;;12.43;8.32;;;;;;;;;;5114301;28;20038;-71
2023/11/09 04:16:44;;;;;;;11.43;7.78;;;;;;;;;;5114475;28;20518;-70
2023/11/09 04:19:48;;;;;;;10.98;9.18;;;;;;;;;;5114023;28;20102;-70
2023/11/09 04:22:53;;;;;;;13.07;8.05;;;;;;;;;;5114440;28;20062;-70
2023/11/09 04:25:57;;;;;;;17.17;8.50;;;;;;;;;;5114081;28;20039;-70
2023/11/09 04:29:03;;;;;;;11.93;8.30;;;10.30;99.90;;;;;;5114053;28;20043;-70
2023/11/09 04:32:08;;;;;;;10.88;7.82;;;;;;;;;;5113815;28;20070;-70
2023/11/09 04:35:12;;;;;;;16.60;8.25;;;;;;;;;;5113257;28;20419;-70
2023/11/09 04:38:17;;;;;;;21.65;9.70;;;;;;;;;;5113746;28;20055;-70
2023/11/09 04:41:22;;;;;;;12.43;7.07;;;;;;;;;;5113084;28;20045;-71
2023/11/09 04:44:28;;;;;;;13.82;7.45;;;;;;;;;;5114085;28;20047;-71
2023/11/09 04:47:33;;;;;;;16.02;8.07;;;10.30;99.90;;;;;;5113953;28;20518;-71
2023/11/09 04:50:40;;;;;;;12.20;7.50;;;;;;;;;;5113843;28;20043;-70
2023/11/09 04:53:44;;;;;;;14.50;7.57;;;;;;;;;;5113806;28;20383;-70
2023/11/09 05:06:51;;;;;;;13.90;7.55;;;;;;;;;;5108121;28;20529;-71
2023/11/09 05:09:56;;;;;;;12.40;7.75;;;;;;;;;;5113140;28;20058;-71
2023/11/09 05:12:59;;;;;;;9.35;7.07;;;;;;;;;;5113474;28;20475;-71
2023/11/09 05:16:04;;;;;;;13.48;8.30;;;;;;;;;;5113363;28;20364;-71
2023/11/09 05:19:09;;;;;;;13.70;7.32;;;9.60;99.90;;;;;;5113009;28;20042;-70
2023/11/09 05:22:13;;;;;;;13.82;7.47;;;;;;;;;;5113256;28;20113;-70
2023/11/09 05:25:18;;;;;;;13.52;7.45;;;;;;;;;;5112909;28;20043;-70
2023/11/09 05:28:22;;;;;;;19.98;8.32;;;;;;;;;;5112825;28;20046;-70
2023/11/09 05:31:26;;;;;;;13.43;7.75;;;;;;;;;;5112531;28;20050;-71
2023/11/09 05:34:31;;;;;;;18.90;9.27;;;;;;;;;;5112141;28;20042;-71
2023/11/09 05:37:35;;;;;;;23.40;12.10;;;;;;;;;;5113509;28;20055;-70
2023/11/09 05:40:42;;;;;;;12.02;7.43;;;10.00;99.90;;;;;;5112798;28;20038;-71
2023/11/09 05:43:46;;;;;;;13.27;7.43;;;;;;;;;;5112797;28;20514;-70
2023/11/09 05:46:50;;;;;;;13.57;7.05;;;;;;;;;;5112607;28;20046;-71
2023/11/09 05:49:57;;;;;;;17.48;7.50;;;;;;;;;;5112838;28;20043;-70
2023/11/09 05:53:01;;;;;;;19.98;7.65;;;;;;;;;;5112622;28;20111;-70
2023/11/09 05:56:07;;;;;;;14.23;7.18;;;;;;;;;;5112684;28;20038;-70
2023/11/09 05:59:11;;;;;;;16.48;7.43;;;;;;;;;;5112206;28;20506;-69
2023/11/09 06:02:18;;;;;;;12.65;7.38;;;;;;;;;;5112206;28;20035;-68
2023/11/09 06:05:24;;;;;;;19.40;7.88;;;;;;;;;;5112431;28;20403;-70
2023/11/09 06:08:30;;;;;;;14.85;7.38;;;;;;;;;;5111940;28;20046;-69
2023/11/09 06:11:34;;;;;;;17.05;8.50;;;;;;;;;;5111947;28;20055;-69
2023/11/09 06:14:38;;;;;;;17.63;7.85;;;;;;;;;;5111334;28;20055;-69
2023/11/09 06:17:43;;;;;;;20.85;8.20;;;;;;;;;;5111819;28;20047;-69
2023/11/09 06:20:49;;;;;;;20.38;8.48;;;;;;;;;;5111692;28;20034;-69
2023/11/09 06:23:52;;;;;;;19.15;8.40;;;;;;;;;;5112086;28;20050;-69
2023/11/09 06:26:57;;;;;;;24.88;8.68;;;10.70;99.90;;;;;;5112003;28;20046;-69
2023/11/09 06:30:03;;;;;;;22.50;9.18;;;;;;;;;;5111090;28;20050;-68
2023/11/09 06:33:09;;;;;;;26.80;11.82;;;;;;;;;;5111556;28;20047;-69
2023/11/09 06:36:13;;;;;;;31.88;17.83;;;;;;;;;;5111802;28;20051;-69
2023/11/09 06:39:19;;;;;;;26.05;12.77;;;;;;;;;;5110806;28;20050;-69
2023/11/09 06:42:23;;;;;;;24.98;11.75;;;;;;;;;;5111491;28;20038;-69
2023/11/09 06:45:27;;;;;;;24.42;10.93;;;;;;;;;;5111333;28;20046;-69
2023/11/09 06:48:31;;;;;;;24.95;10.55;;;;;;;;;;5111193;28;20039;-70
2023/11/09 06:51:36;;;;;;;26.83;9.85;;;;;;;;;;5111337;28;20406;-70
2023/11/09 06:54:40;;;;;;;25.00;9.75;;;;;;;;;;5111347;28;20035;-70
2023/11/09 06:57:45;;;;;;;20.23;9.07;;;12.20;99.90;;;;;;5111365;28;20054;-70
2023/11/09 07:00:50;;;;;;;26.90;10.10;;;;;;;;;;5111456;28;20046;-70
2023/11/09 07:03:55;;;;;;;25.85;10.90;;;;;;;;;;5111532;28;20042;-70
2023/11/09 07:06:59;;;;;;;25.52;9.77;;;;;;;;;;5111416;28;20490;-69
2023/11/09 07:10:05;;;;;;;23.65;7.90;;;;;;;;;;5111119;28;20046;-58
2023/11/09 07:13:10;;;;;;;23.95;6.80;;;;;;;;;;5111109;28;20490;-58
2023/11/09 07:16:15;;;;;;;15.25;6.68;;;;;;;;;;5111065;28;20043;-59
2023/11/09 07:19:20;;;;;;;13.93;7.10;;;;;;;;;;5111061;28;20074;-58
2023/11/09 07:22:24;;;;;;;18.30;7.45;;;;;;;;;;5110931;28;20059;-58
2023/11/09 07:25:31;;;;;;;18.17;8.15;;;;;;;;;;5110926;28;20053;-59
2023/11/09 07:28:35;;;;;;;20.35;8.70;;;;;;;;;;5110423;28;20051;-59
2023/11/09 07:31:40;;;;;;;19.27;8.43;;;;;;;;;;5110706;28;20054;-59
2023/11/09 07:34:45;;;;;;;16.77;6.90;;;;;;;;;;5111081;28;20046;-59
2023/11/09 07:37:49;;;;;;;16.73;7.15;;;;;;;;;;5110520;28;20525;-59
2023/11/09 07:40:53;;;;;;;16.67;7.05;;;;;;;;;;5111644;28;20042;-59
2023/11/09 07:43:58;;;;;;;14.18;6.53;;;;;;;;;;5114813;28;20047;-60
2023/11/09 07:47:02;;;;;;;17.60;7.07;;;;;;;;;;5114485;28;20054;-60
2023/11/09 07:50:09;;;;;;;14.48;6.47;;;;;;;;;;5114540;28;20047;-60
2023/11/09 07:53:13;;;;;;;12.82;6.18;;;;;;;;;;5114616;28;20070;-59
2023/11/09 07:56:17;;;;;;;13.18;5.20;;;;;;;;;;5114302;28;20039;-59
2023/11/09 07:59:26;;;;;;;14.07;4.75;;;;;;;;;;5114356;28;20070;-59
2023/11/09 08:02:30;;;;;;;11.52;4.55;;;;;;;;;;5114343;28;20066;-59
2023/11/09 08:05:40;;;;;;;13.88;4.90;;;;;;;;;;5114547;28;20042;-59
2023/11/09 08:08:45;;;;;;;10.95;4.18;;;;;;;;;;5114068;28;20048;-59
2023/11/09 08:11:54;;;;;;;8.40;3.67;;;;;;;;;;5113938;28;20046;-60
2023/11/09 08:14:59;;;;;;;14.52;5.07;;;;;;;;;;5114272;28;20035;-60
2023/11/09 08:18:04;;;;;;;5.95;3.88;;;;;;;;;;5113842;28;20055;-59
2023/11/09 08:21:09;;;;;;;8.90;3.63;;;;;;;;;;5114021;28;20031;-60
2023/11/09 08:24:13;;;;;;;10.75;4.32;;;;;;;;;;5113857;28;20036;-60
2023/11/09 08:27:17;;;;;;;9.15;4.60;;;;;;;;;;5113847;28;20494;-60
2023/11/09 08:30:26;;;;;;;15.68;4.25;;;;;;;;;;5113121;28;20103;-60
2023/11/09 08:33:32;;;;;;;15.02;5.45;;;;;;;;;;5113624;28;20048;-59
2023/11/09 08:36:36;;;;;;;13.65;4.93;;;;;;;;;;5113897;28;20055;-59
2023/11/09 08:39:41;;;;;;;12.88;5.22;;;;;;;;;;5113779;28;20062;-60
2023/11/09 08:42:48;;;;;;;8.98;3.75;;;;;;;;;;5113645;28;20039;-60
2023/11/09 08:45:51;;;;;;;8.15;3.90;;;;;;;;;;5113681;28;20043;-59
2023/11/09 08:48:56;;;;;;;9.75;4.05;;;;;;;;;;5113359;28;20044;-59
2023/11/09 08:52:04;;;;;;;7.00;3.13;;;;;;;;;;5113084;28;20032;-59
2023/11/09 08:55:09;;;;;;;9.45;3.65;;;;;;;;;;5113654;28;20337;-59
2023/11/09 08:58:14;;;;;;;7.53;3.40;;;;;;;;;;5113236;28;20360;-60
2023/11/09 09:01:19;;;;;;;9.55;3.38;;;;;;;;;;5113292;28;20452;-59
2023/11/09 09:04:24;;;;;;;9.32;3.85;;;;;;;;;;5113259;28;20039;-60
2023/11/09 09:07:28;;;;;;;8.85;3.22;;;;;;;;;;5113251;28;20035;-60
2023/11/09 09:10:34;;;;;;;8.15;3.47;;;;;;;;;;5113158;28;20368;-60
2023/11/09 09:13:38;;;;;;;11.07;4.00;;;;;;;;;;5113276;28;20372;-60
2023/11/09 09:16:42;;;;;;;9.73;3.40;;;;;;;;;;5113009;28;20050;-60
2023/11/09 09:19:46;;;;;;;13.80;3.25;;;;;;;;;;5112598;28;20040;-60
2023/11/09 09:22:54;;;;;;;7.70;3.22;;;;;;;;;;5112865;28;20043;-60
2023/11/09 09:26:00;;;;;;;5.85;2.92;;;;;;;;;;5113033;28;20039;-60
2023/11/09 09:29:06;;;;;;;7.03;3.80;;;;;;;;;;5112587;28;20039;-60
2023/11/09 09:32:11;;;;;;;11.73;3.30;;;;;;;;;;5112508;28;20048;-60
2023/11/09 09:35:15;;;;;;;8.48;3.38;;;;;;;;;;5112650;28;20039;-59
2023/11/09 09:38:21;;;;;;;14.05;3.67;;;;;;;;;;5112487;28;20047;-60
2023/11/09 09:41:28;;;;;;;10.57;3.15;;;16.30;94.50;;;;;;5112247;28;20047;-60
2023/11/09 09:44:33;;;;;;;13.43;3.42;;;;;;;;;;5112355;28;20522;-59
2023/11/09 09:47:38;;;;;;;6.68;3.42;;;;;;;;;;5112176;28;20407;-60
2023/11/09 09:50:42;;;;;;;8.65;2.30;;;;;;;;;;5112126;28;20035;-59
2023/11/09 09:53:47;;;;;;;9.10;2.75;;;;;;;;;;5112233;28;20039;-60
2023/11/09 09:56:53;;;;;;;19.70;3.75;;;;;;;;;;5112012;28;20039;-60
2023/11/09 09:59:58;;;;;;;9.50;2.42;;;;;;;;;;5112177;28;20055;-60
2023/11/09 10:03:06;;;;;;;6.30;2.30;;;19.90;92.30;;;;;;5111708;28;20475;-60
2023/11/09 10:06:13;;;;;;;6.63;2.35;;;;;;;;;;5111995;28;20050;-61
2023/11/09 10:09:17;;;;;;;7.93;2.58;;;;;;;;;;5111847;28;20040;-61
2023/11/09 10:12:21;;;;;;;6.22;2.38;;;;;;;;;;5111901;28;20499;-60
2023/11/09 10:15:26;;;;;;;10.10;2.50;;;;;;;;;;5111943;28;20369;-60
2023/11/09 10:18:32;;;;;;;10.55;2.13;;;;;;;;;;5112012;28;20066;-61
2023/11/09 10:21:36;;;;;;;13.05;2.47;;;;;;;;;;5111771;28;20042;-59
2023/11/09 10:24:40;;;;;;;8.60;2.00;;;;;;;;;;5112207;28;20074;-60
2023/11/09 10:27:47;;;;;;;12.75;3.13;;;20.70;90.60;;;;;;5114286;28;20039;-60
2023/11/09 10:30:51;;;;;;;5.65;1.80;;;;;;;;;;5116586;28;20075;-62
2023/11/09 10:33:56;;;;;;;8.35;1.90;;;;;;;;;;5112949;28;20028;-61
2023/11/09 10:37:00;;;;;;;6.32;2.10;;;;;;;;;;5111997;28;20055;-62
2023/11/09 10:40:05;;;;;;;6.22;1.60;;;20.80;90.00;;;;;;5112400;28;20043;-61
2023/11/09 10:43:14;;;;;;;9.38;1.75;;;18.60;88.20;;;;;;5112358;28;20043;-61
2023/11/09 10:46:19;;;;;;;4.90;1.17;;;20.80;89.80;;;;;;5111876;28;20394;-60
2023/11/09 10:49:23;;;;;;;8.38;1.50;;;;;;;;;;5111583;28;20038;-60
2023/11/09 10:52:28;;;;;;;3.80;1.50;;;;;;;;;;5111601;28;20035;-60
2023/11/09 10:55:33;;;;;;;5.47;1.50;;;20.20;90.30;;;;;;5110848;28;20479;-60
2023/11/09 10:58:44;;;;;;;10.95;2.05;;;;;;;;;;5111128;28;20066;-60
2023/11/09 11:01:53;;;;;;;7.35;1.92;;;20.10;90.60;;;;;;5111210;28;20387;-60
2023/11/09 11:05:03;;;;;;;3.42;1.40;;;20.10;90.40;;;;;;5111248;28;20498;-60
2023/11/09 11:08:12;;;;;;;8.38;1.63;;;19.70;90.30;;;;;;5098586;28;20051;-60
2023/11/09 11:11:28;;;;;;;5.60;1.85;;;19.90;90.60;;;;;;5110560;28;20047;-60
2023/11/09 11:14:40;;;;;;;12.68;3.08;;;20.40;90.80;;;;;;5111779;28;20380;-60
2023/11/09 11:18:00;;;;;;;6.95;2.72;;;18.90;90.80;;;;;;5115195;28;20043;-60
2023/11/09 11:21:20;;;;;;;7.38;2.42;;;19.60;91.20;;;;;;5115404;28;20395;-60
2023/11/09 11:24:24;;;;;;;5.75;2.53;;;;;;;;;;5115141;28;20524;-59
2023/11/09 11:27:30;;;;;;;6.90;2.00;;;;;;;;;;5114853;28;20035;-60
2023/11/09 11:30:41;;;;;;;8.00;2.30;;;19.70;90.80;;;;;;5114905;28;20040;-60
2023/11/09 11:33:47;;;;;;;9.90;2.37;;;;;;;;;;5114970;28;20038;-60
2023/11/09 11:36:52;;;;;;;6.80;2.30;;;;;;;;;;5115024;28;20606;-60
2023/11/09 11:39:56;;;;;;;8.93;2.53;;;19.30;91.50;;;;;;5115062;28;20044;-60
2023/11/09 11:43:02;;;;;;;7.93;2.47;;;;;;;;;;5114732;28;20403;-60
2023/11/09 11:46:08;;;;;;;6.95;2.80;;;19.20;92.10;;;;;;5114857;28;20048;-60
2023/11/09 11:49:16;;;;;;;15.68;3.75;;;19.30;92.30;;;;;;5114601;28;20042;-60
2023/11/09 11:52:23;;;;;;;7.80;2.40;;;19.10;92.30;;;;;;5114939;28;20043;-61
2023/11/09 11:55:31;;;;;;;5.60;2.50;;;;;;;;;;5113717;28;20043;-60
2023/11/09 11:58:48;;;;;;;8.65;2.60;;;19.20;92.40;;;;;;5114399;28;20036;-60
2023/11/09 12:01:55;;;;;;;5.55;2.17;;;;;;;;;;5114333;28;20038;-60
2023/11/09 12:04:59;;;;;;;6.32;2.33;;;;;;;;;;5114504;28;20043;-60
2023/11/09 12:08:03;;;;;;;11.07;2.70;;;17.70;92.00;;;;;;5114294;28;20032;-60
2023/11/09 12:11:09;;;;;;;8.38;1.92;;;;;;;;;;5114393;28;20666;-60
2023/11/09 12:14:19;;;;;;;4.20;2.38;;;18.60;91.90;;;;;;5114524;28;20040;-60
2023/11/09 12:17:25;;;;;;;6.13;2.45;;;;;;;;;;5114036;28;20051;-60
2023/11/09 12:20:36;;;;;;;3.85;1.67;;;;;;;;;;5113268;28;20398;-60
2023/11/09 12:23:42;;;;;;;9.15;2.35;;;;;;;;;;5114290;28;20040;-60
2023/11/09 12:26:47;;;;;;;3.55;1.42;;;;;;;;;;5112983;28;20039;-60
2023/11/09 12:29:52;;;;;;;4.88;1.30;;;19.40;90.70;;;;;;5113564;28;20035;-60
2023/11/09 12:32:58;;;;;;;7.28;2.10;;;;;;;;;;5114174;28;20057;-60
2023/11/09 12:36:04;;;;;;;8.02;1.40;;;19.40;90.50;;;;;;5114071;28;20043;-61
2023/11/09 12:39:29;;;;;;;7.78;1.33;;;19.50;90.20;;;;;;5113683;28;20113;-60
2023/11/09 12:42:34;;;;;;;4.55;1.15;;;;;;;;;;5114069;28;20062;-60
2023/11/09 12:45:41;;;;;;;3.38;1.13;;;;;;;;;;5113722;28;20039;-60
2023/11/09 12:48:48;;;;;;;4.90;1.40;;;20.30;90.00;;;;;;5112863;28;20131;-60
2023/11/09 12:51:53;;;;;;;5.13;1.67;;;19.30;89.90;;;;;;5113760;28;20074;-60
2023/11/09 12:55:00;;;;;;;5.40;1.63;;;;;;;;;;5113561;28;20034;-60
2023/11/09 12:58:04;;;;;;;3.67;1.30;;;20.30;90.30;;;;;;5113548;28;20040;-60
2023/11/09 13:01:14;;;;;;;7.50;2.00;;;;;;;;;;5113581;28;20038;-60
2023/11/09 13:04:22;;;;;;;6.13;1.60;;;;;;;;;;5113233;28;20475;-60
2023/11/09 13:07:27;;;;;;;7.68;1.85;;;;;;;;;;5113003;28;20491;-60
2023/11/09 13:10:31;;;;;;;3.53;1.38;;;;;;;;;;5113034;28;20027;-60
2023/11/09 13:13:38;;;;;;;4.05;1.30;;;;;;;;;;5113114;28;20039;-61
2023/11/09 13:16:44;;;;;;;5.45;2.08;;;18.90;88.00;;;;;;5113084;28;20035;-60
2023/11/09 13:19:50;;;;;;;6.13;1.80;;;;;;;;;;5112839;28;20054;-60
2023/11/09 13:23:05;;;;;;;8.85;1.83;;;19.20;87.00;;;;;;5113159;28;20036;-60
2023/11/09 13:26:11;;;;;;;7.47;2.45;;;18.70;87.10;;;;;;5112724;28;20050;-60
2023/11/09 13:29:18;;;;;;;8.40;1.85;;;;;;;;;;5112778;28;20043;-60
2023/11/09 13:32:28;;;;;;;13.98;2.58;;;;;;;;;;5112564;28;20044;-60
2023/11/09 13:35:37;;;;;;;17.45;2.40;;;;;;;;;;5113045;28;20046;-60
2023/11/09 13:42:08;;;;;;;8.38;2.28;;;;;;;;;;5112853;28;20043;-60
2023/11/09 13:48:43;;;;;;;7.80;1.88;;;;;;;;;;5112174;28;20038;-60
2023/11/09 13:55:22;;;;;;;12.75;4.47;;;;;;;;;;5112410;28;20042;-60
2023/11/09 13:58:27;;;;;;;9.55;2.25;;;;;;;;;;5111923;28;20050;-60
2023/11/09 14:01:31;;;;;;;15.05;3.28;;;;;;;;;;5111725;28;20368;-60
2023/11/09 14:04:35;;;;;;;15.73;3.55;;;;;;;;;;5112380;28;20051;-59
2023/11/09 14:07:41;;;;;;;11.00;2.60;;;18.50;92.30;;;;;;5112402;28;20517;-59
2023/11/09 14:10:48;;;;;;;13.23;2.72;;;;;;;;;;5112270;28;20047;-59
2023/11/09 14:14:03;;;;;;;15.27;2.95;;;;;;;;;;5112183;28;20054;-59
2023/11/09 14:17:16;;;;;;;10.50;3.30;;;;;;;;;;5111810;28;20045;-59
2023/11/09 14:20:34;;;;;;;7.85;3.72;;;18.20;93.20;;;;;;5112047;28;20054;-59
2023/11/09 14:23:38;;;;;;;10.25;3.58;;;;;;;;;;5112086;28;20043;-60
2023/11/09 14:26:46;;;;;;;17.13;4.13;;;;;;;;;;5111338;28;20058;-59
2023/11/09 14:29:55;;;;;;;10.45;2.60;;;;;;;;;;5111515;28;20038;-59
2023/11/09 14:33:02;;;;;;;12.13;3.03;;;18.30;93.70;;;;;;5110802;28;20410;-59
2023/11/09 14:36:07;;;;;;;9.32;2.88;;;;;;;;;;5111710;28;20042;-60
2023/11/09 14:42:34;;;;;;;8.05;2.50;;;;;;;;;;5111662;28;20038;-59
2023/11/09 14:45:40;;;;;;;8.70;2.75;;;;;;;;;;5111555;28;20386;-60
2023/11/09 14:48:45;;;;;;;6.57;2.50;;;;;;;;;;5110570;28;20028;-60
2023/11/09 14:51:52;;;;;;;16.77;5.53;;;;;;;;;;5111571;28;20039;-61
2023/11/09 14:54:57;;;;;;;9.65;2.90;;;;;;;;;;5111546;28;20395;-60
2023/11/09 14:58:10;;;;;;;7.68;2.55;;;18.20;94.00;;;;;;5111137;28;20044;-59
2023/11/09 15:01:14;;;;;;;12.90;3.17;;;;;;;;;;5111366;28;20070;-60
2023/11/09 15:04:21;;;;;;;10.80;3.28;;;;;;;;;;5111467;28;20042;-60
2023/11/09 15:07:25;;;;;;;10.65;3.08;;;;;;;;;;5110998;28;20051;-60
2023/11/09 15:10:31;;;;;;;17.23;3.08;;;;;;;;;;5111235;28;20383;-60
2023/11/09 15:13:37;;;;;;;9.82;3.22;;;19.40;95.00;;;;;;5111170;28;20399;-59
2023/11/09 15:16:44;;;;;;;16.10;3.67;;;;;;;;;;5110991;28;20050;-60
2023/11/09 15:19:50;;;;;;;12.73;3.85;;;;;;;;;;5110719;28;20059;-60
2023/11/09 15:22:59;;;;;;;13.73;3.30;;;;;;;;;;5111262;28;20067;-60
2023/11/09 15:26:06;;;;;;;12.30;3.20;;;;;;;;;;5111285;28;20046;-60
2023/11/09 15:29:11;;;;;;;7.32;4.05;;;;;;;;;;5110860;28;20043;-60
2023/11/09 15:32:15;;;;;;;7.20;3.03;;;;;;;;;;5110735;28;20052;-59
2023/11/09 15:35:21;;;;;;;11.27;4.07;;;;;;;;;;5111258;28;20044;-59
2023/11/09 15:38:25;;;;;;;17.10;4.57;;;;;;;;;;5110991;28;20050;-59
2023/11/09 15:41:29;;;;;;;13.93;3.85;;;;;;;;;;5111617;28;20483;-62
2023/11/09 15:44:37;;;;;;;20.13;5.45;;;;;;;;;;5111243;28;20393;-59
2023/11/09 15:47:42;;;;;;;10.77;3.60;;;17.60;95.30;;;;;;5110842;28;20070;-61
2023/11/09 15:50:49;;;;;;;16.67;3.20;;;;;;;;;;5110534;28;20054;-60
2023/11/09 15:53:53;;;;;;;12.82;4.07;;;;;;;;;;5110955;28;20050;-62
2023/11/09 15:57:00;;;;;;;18.17;5.80;;;;;;;;;;5110599;28;20043;-60
2023/11/09 16:00:12;;;;;;;20.77;5.50;;;;;;;;;;5110365;28;20071;-61
2023/11/09 16:03:17;;;;;;;13.07;3.97;;;;;;;;;;5112719;28;20042;-60
2023/11/09 16:06:22;;;;;;;21.45;4.63;;;;;;;;;;5114467;28;20042;-60
2023/11/09 16:09:27;;;;;;;18.30;4.93;;;;;;;;;;5114296;28;20039;-61
2023/11/09 16:12:31;;;;;;;22.95;6.03;;;;;;;;;;5114030;28;20671;-61
2023/11/09 16:15:35;;;;;;;29.88;6.03;;;;;;;;;;5114172;28;20053;-61
2023/11/09 16:18:40;;;;;;;25.73;7.10;;;;;;;;;;5114138;28;20517;-61
2023/11/09 16:21:44;;;;;;;23.55;7.78;;;;;;;;;;5114289;28;20469;-61
2023/11/09 16:24:50;;;;;;;22.38;10.57;;;;;;;;;;5114122;28;20043;-61
2023/11/09 16:27:55;;;;;;;16.83;7.55;;;;;;;;;;5112868;28;20030;-60
2023/11/09 16:31:02;;;;;;;14.23;5.28;;;13.70;96.20;;;;;;5113420;28;20050;-60
2023/11/09 16:34:07;;;;;;;11.70;2.92;;;;;;;;;;5114045;28;20055;-61
2023/11/09 16:37:11;;;;;;;6.90;1.67;;;;;;;;;;5113848;28;20046;-60
2023/11/09 16:40:16;;;;;;;6.55;1.77;;;;;;;;;;5113610;28;20044;-60
2023/11/09 16:43:23;;;;;;;6.13;3.15;;;;;;;;;;5112265;28;20036;-61
2023/11/09 16:46:27;;;;;;;9.43;3.38;;;;;;;;;;5113704;28;20368;-62
2023/11/09 16:49:32;;;;;;;5.45;3.00;;;;;;;;;;5113636;28;20039;-61
2023/11/09 16:52:36;;;;;;;6.30;2.03;;;;;;;;;;5113500;28;20039;-61
2023/11/09 16:55:41;;;;;;;6.70;3.20;;;;;;;;;;5113449;28;20031;-61
2023/11/09 16:58:45;;;;;;;8.55;2.65;;;;;;;;;;5113577;28;20043;-61
2023/11/09 17:01:50;;;;;;;7.25;2.60;;;;;;;;;;5113378;28;20372;-62
2023/11/09 17:04:54;;;;;;;11.88;3.92;;;;;;;;;;5113210;28;20040;-62
2023/11/09 17:07:59;;;;;;;6.75;3.60;;;;;;;;;;5113213;28;20038;-61
2023/11/09 17:11:04;;;;;;;6.57;2.90;;;;;;;;;;5113432;28;20039;-66
2023/11/09 17:14:08;;;;;;;7.47;2.90;;;;;;;;;;5112681;28;20032;-62
2023/11/09 17:17:12;;;;;;;7.93;2.78;;;;;;;;;;5113001;28;20047;-63
2023/11/09 17:20:17;;;;;;;12.13;3.50;;;;;;;;;;5112681;28;20039;-61
2023/11/09 17:23:21;;;;;;;5.70;2.97;;;;;;;;;;5112730;28;20047;-61
2023/11/09 17:26:27;;;;;;;6.50;3.10;;;;;;;;;;5113079;28;20047;-61
2023/11/09 17:29:32;;;;;;;8.63;4.65;;;;;;;;;;5112709;28;20036;-61
2023/11/09 17:32:37;;;;;;;11.73;5.00;;;;;;;;;;5112906;28;20044;-61
2023/11/09 17:35:42;;;;;;;10.43;4.57;;;;;;;;;;5112097;28;20530;-62
2023/11/09 17:38:47;;;;;;;11.02;4.70;;;;;;;;;;5111703;28;20043;-62
2023/11/09 17:41:56;;;;;;;18.35;5.18;;;16.40;97.40;;;;;;5112203;28;20035;-62
2023/11/09 17:45:01;;;;;;;25.33;5.90;;;;;;;;;;5112559;28;20031;-62
2023/11/09 17:48:05;;;;;;;24.08;6.88;;;;;;;;;;5112500;28;20046;-63
2023/11/09 17:51:09;;;;;;;24.67;6.40;;;;;;;;;;5112535;28;20043;-62
2023/11/09 17:54:14;;;;;;;24.05;6.75;;;;;;;;;;5112409;28;20046;-63
2023/11/09 17:57:19;;;;;;;15.00;6.07;;;;;;;;;;5112396;28;20092;-64
2023/11/09 18:00:24;;;;;;;16.63;5.80;;;;;;;;;;5112069;28;20058;-62
2023/11/09 18:03:28;;;;;;;12.10;6.45;;;;;;;;;;5112124;28;20498;-62
2023/11/09 18:06:33;;;;;;;10.93;6.60;;;;;;;;;;5112355;28;20521;-62
2023/11/09 18:09:38;;;;;;;11.38;6.25;;;;;;;;;;5110481;28;20043;-73
2023/11/09 18:12:44;;;;;;;14.05;7.10;;;;;;;;;;5110224;28;20748;-75
2023/11/09 18:15:49;;;;;;;16.05;6.88;;;;;;;;;;5110200;28;20046;-75